Time,TemperatureF,DewpointF,PressureIn,WindDirection,WindDirectionDegrees,WindSpeedMPH,WindSpeedGustMPH,Humidity,HourlyPrecipIn,Conditions,Clouds,dailyrainin,SolarRadiationWatts/m^2,SoftwareType,DateUTC
2017-02-22 00:00:00,33.5,26.7,30.12,SSW,199,11.5,11.5,76,0.00,CLR,SKC,0.00,0.0,WeatherDisplay:10.37,2017-02-22 05:00:00,
2017-02-22 00:05:00,33.5,27.1,30.13,SSW,205,6.0,6.0,77,0.00,CLR,SKC,0.00,0.0,WeatherDisplay:10.37,2017-02-22 05:05:00,
2017-02-22 00:10:00,33.5,27.1,30.13,SSW,194,11.5,11.5,77,0.00,CLR,SKC,0.00,0.0,WeatherDisplay:10.37,2017-02-22 05:10:00,
2017-02-22 00:15:00,33.5,27.1,30.13,SW,215,5.8,5.8,77,0.00,CLR,SKC,0.00,0.0,WeatherDisplay:10.37,2017-02-22 05:15:00,
2017-02-22 00:20:00,33.5,27.1,30.12,SSW,196,4.6,4.6,77,0.00,CLR,SKC,0.00,0.0,WeatherDisplay:10.37,2017-02-22 05:20:00,
2017-02-22 00:25:00,33.5,27.1,30.12,SSW,207,2.3,2.3,77,0.00,CLR,SKC,0.00,0.0,WeatherDisplay:10.37,2017-02-22 05:25:00,
2017-02-22 00:30:00,33.4,27.3,30.12,South,180,8.1,8.1,78,0.00,CLR,SKC,0.00,0.0,WeatherDisplay:10.37,2017-02-22 05:30:00,
2017-02-22 00:35:00,33.4,27.3,30.12,SSW,193,5.8,5.8,78,0.00,CLR,SKC,0.00,0.0,WeatherDisplay:10.37,2017-02-22 05:35:00,
2017-02-22 00:40:00,33.4,27.3,30.12,South,172,6.9,6.9,78,0.00,CLR,SKC,0.00,0.0,WeatherDisplay:10.37,2017-02-22 05:40:00,
2017-02-22 00:45:00,33.4,27.3,30.12,SSW,210,3.5,3.5,78,0.00,CLR,SKC,0.00,0.0,WeatherDisplay:10.37,2017-02-22 05:45:00,
2017-02-22 00:50:00,33.4,27.3,30.13,SSW,207,8.1,8.1,78,0.00,CLR,SKC,0.00,0.0,WeatherDisplay:10.37,2017-02-22 05:50:00,
2017-02-22 00:55:00,33.4,27.3,30.13,SSW,213,0.0,0.0,78,0.00,CLR,SKC,0.00,0.0,WeatherDisplay:10.37,2017-02-22 05:55:00,
2017-02-22 01:00:00,33.4,27.3,30.13,South,190,5.8,5.8,78,0.00,CLR,SKC,0.00,0.0,WeatherDisplay:10.37,2017-02-22 06:00:00,
2017-02-22 01:05:00,33.4,27.6,30.13,SSW,213,1.0,1.0,79,0.00,CLR,SKC,0.00,0.0,WeatherDisplay:10.37,2017-02-22 06:05:00,
2017-02-22 01:10:00,33.4,27.6,30.12,South,185,5.8,5.8,79,0.00,CLR,SKC,0.00,0.0,WeatherDisplay:10.37,2017-02-22 06:10:00,
2017-02-22 01:15:00,33.4,27.6,30.12,SSW,196,5.8,5.8,79,0.00,CLR,SKC,0.00,0.0,WeatherDisplay:10.37,2017-02-22 06:15:00,
2017-02-22 01:20:00,33.4,27.6,30.12,South,188,3.5,3.5,79,0.00,CLR,SKC,0.00,0.0,WeatherDisplay:10.37,2017-02-22 06:20:00,
2017-02-22 01:25:00,33.3,27.5,30.12,South,183,8.0,8.0,79,0.00,CLR,SKC,0.00,0.0,WeatherDisplay:10.37,2017-02-22 06:25:00,
2017-02-22 01:30:00,33.3,27.8,30.12,SSW,210,0.0,0.0,80,0.00,CLR,SKC,0.00,0.0,WeatherDisplay:10.37,2017-02-22 06:30:00,
2017-02-22 01:35:00,33.3,27.8,30.11,South,182,8.1,8.1,80,0.00,CLR,SKC,0.00,0.0,WeatherDisplay:10.37,2017-02-22 06:35:00,
2017-02-22 01:40:00,33.3,27.8,30.11,SW,215,7.0,7.0,80,0.00,CLR,SKC,0.00,0.0,WeatherDisplay:10.37,2017-02-22 06:40:00,
2017-02-22 01:45:00,33.3,27.8,30.11,SSW,192,5.8,5.8,80,0.00,CLR,SKC,0.00,0.0,WeatherDisplay:10.37,2017-02-22 06:45:00,
2017-02-22 01:50:00,33.3,28.1,30.11,SSW,204,4.6,4.6,81,0.00,CLR,SKC,0.00,0.0,WeatherDisplay:10.37,2017-02-22 06:50:00,
2017-02-22 01:55:00,33.2,28.0,30.10,South,182,1.2,0.0,81,0.00,CLR,SKC,0.00,0.0,WeatherDisplay:10.37,2017-02-22 06:55:00,
2017-02-22 02:00:00,33.2,28.0,30.10,SW,215,3.0,3.0,81,0.00,CLR,SKC,0.00,0.0,WeatherDisplay:10.37,2017-02-22 07:00:00,
2017-02-22 02:05:00,33.2,28.0,30.10,South,185,5.0,5.0,81,0.00,CLR,SKC,0.00,0.0,WeatherDisplay:10.37,2017-02-22 07:05:00,
2017-02-22 02:10:00,33.2,28.3,30.10,SSW,196,5.8,5.8,82,0.00,CLR,SKC,0.00,0.0,WeatherDisplay:10.37,2017-02-22 07:10:00,
2017-02-22 02:15:00,33.2,28.6,30.10,SSW,203,3.5,3.5,83,0.00,CLR,SKC,0.00,0.0,WeatherDisplay:10.37,2017-02-22 07:15:00,
2017-02-22 02:20:00,33.2,28.9,30.10,SW,214,5.8,5.8,84,0.00,CLR,SKC,0.00,0.0,WeatherDisplay:10.37,2017-02-22 07:20:00,
2017-02-22 02:25:00,33.2,28.9,30.10,SSW,212,0.0,0.0,84,0.00,CLR,SKC,0.00,0.0,WeatherDisplay:10.37,2017-02-22 07:25:00,
2017-02-22 02:30:00,33.2,28.9,30.10,SSE,156,3.5,0.0,84,0.00,CLR,SKC,0.00,0.0,WeatherDisplay:10.37,2017-02-22 07:30:00,
2017-02-22 02:35:00,33.1,29.1,30.10,South,178,0.0,0.0,85,0.00,CLR,SKC,0.00,0.0,WeatherDisplay:10.37,2017-02-22 07:35:00,
2017-02-22 02:40:00,33.1,29.4,30.10,SSW,194,1.0,1.0,86,0.00,CLR,SKC,0.00,0.0,WeatherDisplay:10.37,2017-02-22 07:40:00,
2017-02-22 02:45:00,33.0,29.3,30.10,SSW,194,0.0,0.0,86,0.00,CLR,SKC,0.00,0.0,WeatherDisplay:10.37,2017-02-22 07:45:00,
2017-02-22 02:50:00,32.9,29.2,30.09,SSW,197,3.5,3.5,86,0.00,CLR,SKC,0.00,0.0,WeatherDisplay:10.37,2017-02-22 07:50:00,
2017-02-22 02:55:00,32.9,29.5,30.09,SSW,210,3.5,3.5,87,0.00,CLR,SKC,0.00,0.0,WeatherDisplay:10.37,2017-02-22 07:55:00,
2017-02-22 03:00:00,32.8,29.4,30.08,South,188,0.0,0.0,87,0.00,CLR,SKC,0.00,0.0,WeatherDisplay:10.37,2017-02-22 08:00:00,
2017-02-22 03:05:00,32.7,29.3,30.08,South,188,0.0,0.0,87,0.00,CLR,SKC,0.00,0.0,WeatherDisplay:10.37,2017-02-22 08:05:00,
2017-02-22 03:10:00,32.7,29.3,30.08,SW,219,8.1,8.1,87,0.00,CLR,SKC,0.00,0.0,WeatherDisplay:10.37,2017-02-22 08:10:00,
2017-02-22 03:15:00,32.6,29.2,30.08,SW,214,3.5,0.0,87,0.00,CLR,SKC,0.00,0.0,WeatherDisplay:10.37,2017-02-22 08:15:00,
2017-02-22 03:20:00,32.6,29.2,30.08,SSW,197,0.0,0.0,87,0.00,CLR,SKC,0.00,0.0,WeatherDisplay:10.37,2017-02-22 08:20:00,
2017-02-22 03:25:00,32.6,29.4,30.07,SSW,208,4.6,4.6,88,0.00,CLR,SKC,0.00,0.0,WeatherDisplay:10.37,2017-02-22 08:25:00,
2017-02-22 03:30:00,32.5,29.3,30.08,SW,215,4.0,4.0,88,0.01,RA,SKC,0.01,0.0,WeatherDisplay:10.37,2017-02-22 08:30:00,
2017-02-22 03:35:00,32.5,29.3,30.08,SSW,200,6.9,6.9,88,0.01,RA,SKC,0.01,0.0,WeatherDisplay:10.37,2017-02-22 08:35:00,
2017-02-22 03:40:00,32.5,29.3,30.08,SW,217,2.3,2.3,88,0.01,CLR,SKC,0.01,0.0,WeatherDisplay:10.37,2017-02-22 08:40:00,
2017-02-22 03:45:00,32.5,29.3,30.08,SSW,206,3.0,3.0,88,0.01,CLR,SKC,0.01,0.0,WeatherDisplay:10.37,2017-02-22 08:45:00,
2017-02-22 03:50:00,32.4,29.2,30.08,SSW,194,3.5,3.5,88,0.01,CLR,SKC,0.01,0.0,WeatherDisplay:10.37,2017-02-22 08:50:00,
2017-02-22 03:55:00,32.4,29.2,30.08,SSW,201,3.5,3.5,88,0.01,CLR,SKC,0.01,0.0,WeatherDisplay:10.37,2017-02-22 08:55:00,
2017-02-22 04:00:00,32.4,29.2,30.08,SW,215,3.5,3.5,88,0.01,CLR,SKC,0.01,0.0,WeatherDisplay:10.37,2017-02-22 09:00:00,
2017-02-22 04:05:00,32.4,29.2,30.08,SSW,211,4.6,4.6,88,0.01,CLR,SKC,0.01,0.0,WeatherDisplay:10.37,2017-02-22 09:05:00,
2017-02-22 04:10:00,32.4,29.2,30.08,SSW,206,5.0,5.0,88,0.01,CLR,SKC,0.01,0.0,WeatherDisplay:10.37,2017-02-22 09:10:00,
2017-02-22 04:15:00,32.4,29.2,30.08,SSW,202,0.0,0.0,88,0.01,CLR,SKC,0.01,0.0,WeatherDisplay:10.37,2017-02-22 09:15:00,
2017-02-22 04:20:00,32.4,29.2,30.08,SW,214,0.0,0.0,88,0.01,CLR,SKC,0.01,0.0,WeatherDisplay:10.37,2017-02-22 09:20:00,
2017-02-22 04:25:00,32.3,29.1,30.08,SSW,198,0.0,0.0,88,0.01,CLR,SKC,0.01,0.0,WeatherDisplay:10.37,2017-02-22 09:25:00,
2017-02-22 04:30:00,32.4,29.2,30.08,SSW,212,3.5,3.5,88,0.00,CLR,SKC,0.01,0.0,WeatherDisplay:10.37,2017-02-22 09:30:00,
2017-02-22 04:36:00,32.4,29.2,30.08,SSW,206,3.5,3.5,88,0.00,CLR,SKC,0.01,0.0,WeatherDisplay:10.37,2017-02-22 09:36:00,
2017-02-22 04:41:00,32.4,29.2,30.07,SSW,195,3.5,3.5,88,0.00,CLR,SKC,0.01,0.0,WeatherDisplay:10.37,2017-02-22 09:41:00,
2017-02-22 04:46:00,32.4,29.5,30.07,SSW,209,3.5,3.5,89,0.00,CLR,SKC,0.01,0.0,WeatherDisplay:10.37,2017-02-22 09:46:00,
2017-02-22 04:51:00,32.4,29.5,30.07,SW,221,3.5,3.5,89,0.00,CLR,SKC,0.01,0.0,WeatherDisplay:10.37,2017-02-22 09:51:00,
2017-02-22 04:56:00,32.4,29.5,30.07,SW,232,4.6,0.0,89,0.00,CLR,SKC,0.01,0.0,WeatherDisplay:10.37,2017-02-22 09:56:00,
2017-02-22 05:01:00,32.5,29.6,30.07,SSW,207,5.8,5.8,89,0.00,CLR,SKC,0.01,0.0,WeatherDisplay:10.37,2017-02-22 10:01:00,
2017-02-22 05:06:00,32.5,29.6,30.07,SW,225,4.6,4.6,89,0.00,CLR,SKC,0.01,0.0,WeatherDisplay:10.37,2017-02-22 10:06:00,
2017-02-22 05:11:00,32.5,29.6,30.08,SW,217,2.0,2.0,89,0.00,CLR,SKC,0.01,0.0,WeatherDisplay:10.37,2017-02-22 10:11:00,
2017-02-22 05:16:00,32.5,29.6,30.08,SW,215,0.0,0.0,89,0.00,CLR,SKC,0.01,0.0,WeatherDisplay:10.37,2017-02-22 10:16:00,
2017-02-22 05:21:00,32.4,29.5,30.08,SW,221,0.0,0.0,89,0.00,CLR,SKC,0.01,0.0,WeatherDisplay:10.37,2017-02-22 10:21:00,
2017-02-22 05:26:00,32.4,29.5,30.07,SSW,213,0.0,0.0,89,0.00,CLR,SKC,0.01,0.0,WeatherDisplay:10.37,2017-02-22 10:26:00,
2017-02-22 05:31:00,32.4,29.5,30.07,SSW,209,0.0,0.0,89,0.00,CLR,SKC,0.01,0.0,WeatherDisplay:10.37,2017-02-22 10:31:00,
2017-02-22 05:36:00,32.4,29.5,30.08,SSW,209,0.0,0.0,89,0.00,CLR,SKC,0.01,0.0,WeatherDisplay:10.37,2017-02-22 10:36:00,
2017-02-22 05:41:00,32.4,29.5,30.08,SSW,209,0.0,0.0,89,0.00,CLR,SKC,0.01,0.0,WeatherDisplay:10.37,2017-02-22 10:41:00,
2017-02-22 05:46:00,32.3,29.4,30.07,SSW,209,0.0,0.0,89,0.00,CLR,SKC,0.01,0.0,WeatherDisplay:10.37,2017-02-22 10:46:00,
2017-02-22 05:51:00,32.3,29.4,30.07,SSW,209,0.0,0.0,89,0.00,CLR,SKC,0.01,0.0,WeatherDisplay:10.37,2017-02-22 10:51:00,
2017-02-22 05:56:00,32.3,29.4,30.06,SSW,209,0.0,0.0,89,0.00,CLR,SKC,0.01,0.0,WeatherDisplay:10.37,2017-02-22 10:56:00,
2017-02-22 06:01:00,32.2,29.3,30.06,SSE,153,0.0,0.0,89,0.00,CLR,SKC,0.01,0.0,WeatherDisplay:10.37,2017-02-22 11:01:00,
2017-02-22 06:06:00,32.2,29.3,30.06,SSE,159,0.0,0.0,89,0.00,CLR,SKC,0.01,0.0,WeatherDisplay:10.37,2017-02-22 11:06:00,
2017-02-22 06:11:00,32.1,29.2,30.06,SSE,159,0.0,0.0,89,0.00,CLR,SKC,0.01,0.0,WeatherDisplay:10.37,2017-02-22 11:11:00,
2017-02-22 06:16:00,32.1,29.2,30.07,SSE,159,0.0,0.0,89,0.00,CLR,SKC,0.01,0.0,WeatherDisplay:10.37,2017-02-22 11:16:00,
2017-02-22 06:21:00,32.0,29.1,30.07,SSE,160,0.0,0.0,89,0.00,CLR,SKC,0.01,0.0,WeatherDisplay:10.37,2017-02-22 11:21:00,
2017-02-22 06:26:00,31.9,29.0,30.06,SSE,160,0.0,0.0,89,0.00,CLR,SKC,0.01,0.0,WeatherDisplay:10.37,2017-02-22 11:26:00,
2017-02-22 06:31:00,31.8,28.9,30.07,SSE,160,0.0,0.0,89,0.00,CLR,SKC,0.01,0.0,WeatherDisplay:10.37,2017-02-22 11:31:00,
2017-02-22 06:36:00,31.7,28.8,30.07,SSE,160,0.0,0.0,89,0.00,CLR,SKC,0.01,0.0,WeatherDisplay:10.37,2017-02-22 11:36:00,
2017-02-22 06:41:00,31.5,28.6,30.07,SSE,160,0.0,0.0,89,0.00,CLR,SKC,0.01,0.0,WeatherDisplay:10.37,2017-02-22 11:41:00,
2017-02-22 06:46:00,31.4,28.5,30.07,SSE,161,2.0,2.0,89,0.00,CLR,SKC,0.01,7.0,WeatherDisplay:10.37,2017-02-22 11:46:00,
2017-02-22 06:56:00,31.1,28.2,30.08,SSE,162,0.0,0.0,89,0.00,CLR,SKC,0.01,12.0,WeatherDisplay:10.37,2017-02-22 11:56:00,
2017-02-22 07:01:00,31.0,28.1,30.07,SSE,162,0.0,0.0,89,0.00,CLR,SKC,0.01,16.0,WeatherDisplay:10.37,2017-02-22 12:01:00,
2017-02-22 07:06:00,30.8,27.9,30.08,SSE,162,0.0,0.0,89,0.00,CLR,SKC,0.01,19.0,WeatherDisplay:10.37,2017-02-22 12:06:00,
2017-02-22 07:11:00,30.8,28.2,30.08,SSE,163,0.0,0.0,90,0.00,CLR,SKC,0.01,26.0,WeatherDisplay:10.37,2017-02-22 12:11:00,
2017-02-22 07:16:00,30.7,28.1,30.09,SSE,162,0.0,0.0,90,0.00,CLR,SKC,0.01,37.0,WeatherDisplay:10.37,2017-02-22 12:16:00,
2017-02-22 07:21:00,30.7,28.1,30.09,SSE,162,0.0,0.0,90,0.00,CLR,SKC,0.01,37.0,WeatherDisplay:10.37,2017-02-22 12:21:00,
2017-02-22 07:26:00,30.7,28.1,30.09,SSE,162,0.0,0.0,90,0.00,CLR,SKC,0.01,35.0,WeatherDisplay:10.37,2017-02-22 12:26:00,
2017-02-22 07:31:00,30.7,28.1,30.09,SSE,162,0.0,0.0,90,0.00,CLR,SKC,0.01,42.0,WeatherDisplay:10.37,2017-02-22 12:31:00,